sensor_id;sensor_type;location;lat;lon;timestamp;P1;durP1;ratioP1;P2;durP2;ratioP2
72201;SDS011;60105;54.956;73.412;2022-09-06T00:01:06;10.48;;;3.63;;
72201;SDS011;60105;54.956;73.412;2022-09-06T00:03:34;7.57;;;3.13;;
72201;SDS011;60105;54.956;73.412;2022-09-06T00:06:06;5.60;;;3.30;;
72201;SDS011;60105;54.956;73.412;2022-09-06T00:08:33;5.50;;;2.85;;
72201;SDS011;60105;54.956;73.412;2022-09-06T00:11:00;6.10;;;3.50;;
72201;SDS011;60105;54.956;73.412;2022-09-06T00:13:26;5.25;;;3.22;;
72201;SDS011;60105;54.956;73.412;2022-09-06T00:15:52;5.20;;;2.78;;
72201;SDS011;60105;54.956;73.412;2022-09-06T00:18:18;5.50;;;2.70;;
72201;SDS011;60105;54.956;73.412;2022-09-06T00:20:45;6.15;;;3.42;;
72201;SDS011;60105;54.956;73.412;2022-09-06T00:23:21;6.38;;;2.90;;
72201;SDS011;60105;54.956;73.412;2022-09-06T00:25:48;6.78;;;3.35;;
72201;SDS011;60105;54.956;73.412;2022-09-06T00:28:14;6.70;;;3.38;;
72201;SDS011;60105;54.956;73.412;2022-09-06T00:30:40;6.53;;;3.50;;
72201;SDS011;60105;54.956;73.412;2022-09-06T00:33:08;7.35;;;3.80;;
72201;SDS011;60105;54.956;73.412;2022-09-06T00:35:40;4.32;;;2.88;;
72201;SDS011;60105;54.956;73.412;2022-09-06T00:38:12;7.68;;;3.30;;
72201;SDS011;60105;54.956;73.412;2022-09-06T00:40:43;5.32;;;3.20;;
72201;SDS011;60105;54.956;73.412;2022-09-06T00:43:09;6.53;;;3.40;;
72201;SDS011;60105;54.956;73.412;2022-09-06T00:45:35;5.28;;;3.20;;
72201;SDS011;60105;54.956;73.412;2022-09-06T00:48:12;8.27;;;3.78;;
72201;SDS011;60105;54.956;73.412;2022-09-06T00:50:39;6.05;;;3.10;;
72201;SDS011;60105;54.956;73.412;2022-09-06T00:53:05;6.95;;;3.55;;
72201;SDS011;60105;54.956;73.412;2022-09-06T00:55:31;9.57;;;3.37;;
72201;SDS011;60105;54.956;73.412;2022-09-06T00:58:03;6.43;;;3.90;;
72201;SDS011;60105;54.956;73.412;2022-09-06T01:00:32;6.70;;;3.50;;
72201;SDS011;60105;54.956;73.412;2022-09-06T01:02:58;6.32;;;3.97;;
72201;SDS011;60105;54.956;73.412;2022-09-06T01:05:31;8.02;;;3.97;;
72201;SDS011;60105;54.956;73.412;2022-09-06T01:08:26;5.87;;;3.63;;
72201;SDS011;60105;54.956;73.412;2022-09-06T01:14:08;6.15;;;3.70;;
72201;SDS011;60105;54.956;73.412;2022-09-06T01:28:35;7.63;;;4.18;;
72201;SDS011;60105;54.956;73.412;2022-09-06T01:36:49;6.07;;;3.57;;
72201;SDS011;60105;54.956;73.412;2022-09-06T01:39:31;7.57;;;4.18;;
72201;SDS011;60105;54.956;73.412;2022-09-06T01:42:01;6.65;;;4.20;;
72201;SDS011;60105;54.956;73.412;2022-09-06T01:44:31;9.20;;;3.90;;
72201;SDS011;60105;54.956;73.412;2022-09-06T01:54:55;8.80;;;3.75;;
72201;SDS011;60105;54.956;73.412;2022-09-06T02:00:20;7.88;;;3.95;;
72201;SDS011;60105;54.956;73.412;2022-09-06T02:08:00;10.43;;;4.40;;
72201;SDS011;60105;54.956;73.412;2022-09-06T02:10:40;9.65;;;5.38;;
72201;SDS011;60105;54.956;73.412;2022-09-06T02:13:10;16.77;;;9.02;;
72201;SDS011;60105;54.956;73.412;2022-09-06T02:15:44;12.83;;;7.60;;
72201;SDS011;60105;54.956;73.412;2022-09-06T02:18:22;10.95;;;7.68;;
72201;SDS011;60105;54.956;73.412;2022-09-06T02:20:54;14.75;;;7.53;;
72201;SDS011;60105;54.956;73.412;2022-09-06T02:23:32;15.88;;;11.70;;
72201;SDS011;60105;54.956;73.412;2022-09-06T02:26:25;24.88;;;16.55;;
72201;SDS011;60105;54.956;73.412;2022-09-06T02:28:55;26.40;;;17.90;;
72201;SDS011;60105;54.956;73.412;2022-09-06T02:31:28;22.05;;;14.68;;
72201;SDS011;60105;54.956;73.412;2022-09-06T02:33:58;13.05;;;9.57;;
72201;SDS011;60105;54.956;73.412;2022-09-06T02:36:24;15.75;;;8.75;;
72201;SDS011;60105;54.956;73.412;2022-09-06T02:38:58;17.17;;;7.45;;
72201;SDS011;60105;54.956;73.412;2022-09-06T02:41:31;15.30;;;7.73;;
72201;SDS011;60105;54.956;73.412;2022-09-06T02:43:58;12.20;;;6.40;;
72201;SDS011;60105;54.956;73.412;2022-09-06T02:46:25;17.23;;;7.35;;
72201;SDS011;60105;54.956;73.412;2022-09-06T02:48:51;15.25;;;8.25;;
72201;SDS011;60105;54.956;73.412;2022-09-06T02:51:17;13.85;;;5.90;;
72201;SDS011;60105;54.956;73.412;2022-09-06T02:53:43;11.43;;;5.03;;
72201;SDS011;60105;54.956;73.412;2022-09-06T02:56:10;9.85;;;5.07;;
72201;SDS011;60105;54.956;73.412;2022-09-06T02:58:36;10.80;;;5.20;;
72201;SDS011;60105;54.956;73.412;2022-09-06T03:01:03;10.75;;;5.40;;
72201;SDS011;60105;54.956;73.412;2022-09-06T03:03:29;11.77;;;5.00;;
72201;SDS011;60105;54.956;73.412;2022-09-06T03:05:55;8.77;;;4.87;;
72201;SDS011;60105;54.956;73.412;2022-09-06T03:08:22;10.90;;;6.05;;
72201;SDS011;60105;54.956;73.412;2022-09-06T03:10:51;8.15;;;4.80;;
72201;SDS011;60105;54.956;73.412;2022-09-06T03:13:25;9.32;;;4.90;;
72201;SDS011;60105;54.956;73.412;2022-09-06T03:15:52;7.88;;;5.28;;
72201;SDS011;60105;54.956;73.412;2022-09-06T03:18:21;11.17;;;6.20;;
72201;SDS011;60105;54.956;73.412;2022-09-06T03:20:58;13.98;;;5.45;;
72201;SDS011;60105;54.956;73.412;2022-09-06T03:23:29;11.10;;;4.88;;
72201;SDS011;60105;54.956;73.412;2022-09-06T03:26:00;10.27;;;5.20;;
72201;SDS011;60105;54.956;73.412;2022-09-06T03:28:26;9.40;;;4.53;;
72201;SDS011;60105;54.956;73.412;2022-09-06T03:30:53;10.13;;;4.70;;
72201;SDS011;60105;54.956;73.412;2022-09-06T03:33:27;9.13;;;5.35;;
72201;SDS011;60105;54.956;73.412;2022-09-06T03:35:54;12.52;;;5.57;;
72201;SDS011;60105;54.956;73.412;2022-09-06T03:38:23;12.90;;;5.80;;
72201;SDS011;60105;54.956;73.412;2022-09-06T03:40:50;10.82;;;5.63;;
72201;SDS011;60105;54.956;73.412;2022-09-06T03:43:17;10.37;;;5.57;;
72201;SDS011;60105;54.956;73.412;2022-09-06T03:45:50;10.70;;;6.10;;
72201;SDS011;60105;54.956;73.412;2022-09-06T03:48:19;12.02;;;5.90;;
72201;SDS011;60105;54.956;73.412;2022-09-06T03:50:47;9.25;;;5.72;;
72201;SDS011;60105;54.956;73.412;2022-09-06T03:53:19;11.60;;;6.53;;
72201;SDS011;60105;54.956;73.412;2022-09-06T03:55:47;16.10;;;7.10;;
72201;SDS011;60105;54.956;73.412;2022-09-06T03:58:27;14.65;;;6.63;;
72201;SDS011;60105;54.956;73.412;2022-09-06T04:01:02;14.18;;;6.80;;
72201;SDS011;60105;54.956;73.412;2022-09-06T04:03:36;12.43;;;7.20;;
72201;SDS011;60105;54.956;73.412;2022-09-06T04:06:12;19.02;;;7.90;;
72201;SDS011;60105;54.956;73.412;2022-09-06T04:08:39;20.73;;;8.90;;
72201;SDS011;60105;54.956;73.412;2022-09-06T04:11:05;13.60;;;8.18;;
72201;SDS011;60105;54.956;73.412;2022-09-06T04:13:32;14.23;;;7.82;;
72201;SDS011;60105;54.956;73.412;2022-09-06T04:16:09;17.08;;;8.98;;
72201;SDS011;60105;54.956;73.412;2022-09-06T04:18:36;12.23;;;7.35;;
72201;SDS011;60105;54.956;73.412;2022-09-06T04:21:02;14.50;;;7.10;;
72201;SDS011;60105;54.956;73.412;2022-09-06T04:23:29;13.18;;;7.35;;
72201;SDS011;60105;54.956;73.412;2022-09-06T04:25:56;11.88;;;7.13;;
72201;SDS011;60105;54.956;73.412;2022-09-06T04:28:23;14.13;;;7.70;;
72201;SDS011;60105;54.956;73.412;2022-09-06T04:31:01;15.45;;;8.85;;
72201;SDS011;60105;54.956;73.412;2022-09-06T04:33:28;20.03;;;13.20;;
72201;SDS011;60105;54.956;73.412;2022-09-06T04:36:07;24.60;;;13.27;;
72201;SDS011;60105;54.956;73.412;2022-09-06T04:38:37;16.70;;;10.18;;
72201;SDS011;60105;54.956;73.412;2022-09-06T04:41:13;17.15;;;9.38;;
72201;SDS011;60105;54.956;73.412;2022-09-06T04:43:52;12.68;;;8.32;;
72201;SDS011;60105;54.956;73.412;2022-09-06T04:46:19;16.50;;;8.43;;
72201;SDS011;60105;54.956;73.412;2022-09-06T04:48:50;12.77;;;8.90;;
72201;SDS011;60105;54.956;73.412;2022-09-06T04:51:23;15.63;;;7.78;;
72201;SDS011;60105;54.956;73.412;2022-09-06T04:54:01;13.57;;;7.90;;
72201;SDS011;60105;54.956;73.412;2022-09-06T04:56:32;12.00;;;7.63;;
72201;SDS011;60105;54.956;73.412;2022-09-06T04:58:58;12.70;;;8.50;;
72201;SDS011;60105;54.956;73.412;2022-09-06T05:01:30;13.55;;;7.10;;
72201;SDS011;60105;54.956;73.412;2022-09-06T05:04:06;14.40;;;8.52;;
72201;SDS011;60105;54.956;73.412;2022-09-06T05:06:33;13.50;;;9.60;;
72201;SDS011;60105;54.956;73.412;2022-09-06T05:09:04;20.90;;;12.65;;
72201;SDS011;60105;54.956;73.412;2022-09-06T05:11:31;20.30;;;12.17;;
72201;SDS011;60105;54.956;73.412;2022-09-06T05:14:07;20.75;;;13.77;;
72201;SDS011;60105;54.956;73.412;2022-09-06T05:16:33;23.05;;;14.30;;
72201;SDS011;60105;54.956;73.412;2022-09-06T05:18:59;23.45;;;13.43;;
72201;SDS011;60105;54.956;73.412;2022-09-06T05:21:25;21.05;;;13.45;;
72201;SDS011;60105;54.956;73.412;2022-09-06T05:23:52;20.93;;;13.27;;
72201;SDS011;60105;54.956;73.412;2022-09-06T05:26:28;21.25;;;13.25;;
72201;SDS011;60105;54.956;73.412;2022-09-06T05:28:54;23.13;;;15.13;;
72201;SDS011;60105;54.956;73.412;2022-09-06T05:31:25;23.85;;;14.10;;
72201;SDS011;60105;54.956;73.412;2022-09-06T05:33:53;26.38;;;14.90;;
72201;SDS011;60105;54.956;73.412;2022-09-06T05:36:20;24.90;;;15.33;;
72201;SDS011;60105;54.956;73.412;2022-09-06T05:38:49;23.35;;;13.85;;
72201;SDS011;60105;54.956;73.412;2022-09-06T05:41:16;18.40;;;11.88;;
72201;SDS011;60105;54.956;73.412;2022-09-06T05:43:48;20.60;;;12.93;;
72201;SDS011;60105;54.956;73.412;2022-09-06T05:46:15;16.65;;;11.57;;
72201;SDS011;60105;54.956;73.412;2022-09-06T05:48:41;13.47;;;9.87;;
72201;SDS011;60105;54.956;73.412;2022-09-06T05:51:18;16.60;;;10.98;;
72201;SDS011;60105;54.956;73.412;2022-09-06T05:53:45;20.63;;;12.02;;
72201;SDS011;60105;54.956;73.412;2022-09-06T05:56:12;20.90;;;12.00;;
72201;SDS011;60105;54.956;73.412;2022-09-06T05:58:39;17.08;;;11.05;;
72201;SDS011;60105;54.956;73.412;2022-09-06T06:03:55;19.50;;;11.40;;
72201;SDS011;60105;54.956;73.412;2022-09-06T06:06:27;17.98;;;10.95;;
72201;SDS011;60105;54.956;73.412;2022-09-06T06:09:05;15.23;;;10.63;;
72201;SDS011;60105;54.956;73.412;2022-09-06T06:11:41;13.00;;;9.30;;
72201;SDS011;60105;54.956;73.412;2022-09-06T06:14:12;16.40;;;10.33;;
72201;SDS011;60105;54.956;73.412;2022-09-06T06:16:38;18.25;;;11.15;;
72201;SDS011;60105;54.956;73.412;2022-09-06T06:19:05;18.08;;;11.20;;
72201;SDS011;60105;54.956;73.412;2022-09-06T06:21:31;20.70;;;11.75;;
72201;SDS011;60105;54.956;73.412;2022-09-06T06:23:59;21.42;;;13.15;;
72201;SDS011;60105;54.956;73.412;2022-09-06T06:26:32;22.20;;;12.10;;
72201;SDS011;60105;54.956;73.412;2022-09-06T06:29:00;19.52;;;12.88;;
72201;SDS011;60105;54.956;73.412;2022-09-06T06:31:27;18.40;;;14.05;;
72201;SDS011;60105;54.956;73.412;2022-09-06T06:33:59;19.77;;;12.50;;
72201;SDS011;60105;54.956;73.412;2022-09-06T06:36:38;19.95;;;12.98;;
72201;SDS011;60105;54.956;73.412;2022-09-06T06:39:05;20.47;;;14.53;;
72201;SDS011;60105;54.956;73.412;2022-09-06T06:41:33;18.45;;;12.52;;
72201;SDS011;60105;54.956;73.412;2022-09-06T06:44:09;19.17;;;12.63;;
72201;SDS011;60105;54.956;73.412;2022-09-06T06:46:45;17.98;;;12.45;;
72201;SDS011;60105;54.956;73.412;2022-09-06T06:49:21;17.70;;;11.93;;
72201;SDS011;60105;54.956;73.412;2022-09-06T06:55:52;19.75;;;12.30;;
72201;SDS011;60105;54.956;73.412;2022-09-06T06:58:19;18.95;;;12.77;;
72201;SDS011;60105;54.956;73.412;2022-09-06T07:00:46;18.73;;;12.43;;
72201;SDS011;60105;54.956;73.412;2022-09-06T07:03:22;16.48;;;11.13;;
72201;SDS011;60105;54.956;73.412;2022-09-06T07:05:49;20.17;;;12.23;;
72201;SDS011;60105;54.956;73.412;2022-09-06T07:08:15;19.27;;;12.57;;
72201;SDS011;60105;54.956;73.412;2022-09-06T07:10:46;21.75;;;13.40;;
72201;SDS011;60105;54.956;73.412;2022-09-06T07:13:18;18.85;;;12.60;;
72201;SDS011;60105;54.956;73.412;2022-09-06T07:15:44;17.33;;;12.73;;
72201;SDS011;60105;54.956;73.412;2022-09-06T07:18:10;19.07;;;11.90;;
72201;SDS011;60105;54.956;73.412;2022-09-06T07:20:47;15.93;;;11.82;;
72201;SDS011;60105;54.956;73.412;2022-09-06T07:23:18;23.17;;;14.25;;
72201;SDS011;60105;54.956;73.412;2022-09-06T07:25:55;19.45;;;13.73;;
72201;SDS011;60105;54.956;73.412;2022-09-06T07:28:31;22.08;;;13.55;;
72201;SDS011;60105;54.956;73.412;2022-09-06T07:31:08;26.17;;;15.53;;
72201;SDS011;60105;54.956;73.412;2022-09-06T07:33:35;26.10;;;15.73;;
72201;SDS011;60105;54.956;73.412;2022-09-06T07:36:02;22.85;;;14.95;;
72201;SDS011;60105;54.956;73.412;2022-09-06T07:38:35;20.48;;;13.80;;
72201;SDS011;60105;54.956;73.412;2022-09-06T07:41:03;20.95;;;12.70;;
72201;SDS011;60105;54.956;73.412;2022-09-06T07:43:30;22.10;;;13.63;;
72201;SDS011;60105;54.956;73.412;2022-09-06T07:46:04;21.17;;;13.90;;
72201;SDS011;60105;54.956;73.412;2022-09-06T07:48:35;24.02;;;13.70;;
72201;SDS011;60105;54.956;73.412;2022-09-06T07:51:05;27.45;;;16.00;;
72201;SDS011;60105;54.956;73.412;2022-09-06T07:53:33;35.05;;;21.20;;
72201;SDS011;60105;54.956;73.412;2022-09-06T07:56:06;43.23;;;22.40;;
72201;SDS011;60105;54.956;73.412;2022-09-06T07:58:40;46.70;;;24.75;;
72201;SDS011;60105;54.956;73.412;2022-09-06T08:01:32;53.15;;;26.05;;
72201;SDS011;60105;54.956;73.412;2022-09-06T08:04:13;44.00;;;24.00;;
72201;SDS011;60105;54.956;73.412;2022-09-06T08:06:42;34.85;;;20.30;;
72201;SDS011;60105;54.956;73.412;2022-09-06T08:09:11;26.50;;;17.17;;
72201;SDS011;60105;54.956;73.412;2022-09-06T08:11:37;26.83;;;16.23;;
72201;SDS011;60105;54.956;73.412;2022-09-06T08:14:05;23.02;;;15.27;;
72201;SDS011;60105;54.956;73.412;2022-09-06T08:16:35;24.85;;;15.10;;
72201;SDS011;60105;54.956;73.412;2022-09-06T08:19:07;22.80;;;14.23;;
72201;SDS011;60105;54.956;73.412;2022-09-06T08:21:38;22.80;;;13.40;;
72201;SDS011;60105;54.956;73.412;2022-09-06T08:24:05;28.52;;;15.00;;
72201;SDS011;60105;54.956;73.412;2022-09-06T08:26:33;22.83;;;13.98;;
72201;SDS011;60105;54.956;73.412;2022-09-06T08:29:02;20.58;;;13.73;;
72201;SDS011;60105;54.956;73.412;2022-09-06T08:31:42;22.50;;;14.07;;
72201;SDS011;60105;54.956;73.412;2022-09-06T08:34:10;22.00;;;13.67;;
72201;SDS011;60105;54.956;73.412;2022-09-06T08:36:37;24.55;;;14.95;;
72201;SDS011;60105;54.956;73.412;2022-09-06T08:39:04;22.95;;;14.75;;
72201;SDS011;60105;54.956;73.412;2022-09-06T08:47:02;19.93;;;13.93;;
72201;SDS011;60105;54.956;73.412;2022-09-06T08:49:42;21.08;;;13.90;;
72201;SDS011;60105;54.956;73.412;2022-09-06T09:00:24;20.60;;;12.23;;
72201;SDS011;60105;54.956;73.412;2022-09-06T09:02:57;19.85;;;13.13;;
72201;SDS011;60105;54.956;73.412;2022-09-06T09:05:33;19.42;;;12.55;;
72201;SDS011;60105;54.956;73.412;2022-09-06T09:10:33;17.13;;;12.45;;
72201;SDS011;60105;54.956;73.412;2022-09-06T09:13:29;22.37;;;13.63;;
72201;SDS011;60105;54.956;73.412;2022-09-06T09:16:16;19.33;;;14.60;;
72201;SDS011;60105;54.956;73.412;2022-09-06T09:18:48;15.80;;;11.43;;
72201;SDS011;60105;54.956;73.412;2022-09-06T09:21:18;16.58;;;12.25;;
72201;SDS011;60105;54.956;73.412;2022-09-06T09:23:53;24.30;;;13.27;;
72201;SDS011;60105;54.956;73.412;2022-09-06T09:26:24;23.27;;;13.10;;
72201;SDS011;60105;54.956;73.412;2022-09-06T09:29:01;19.98;;;13.95;;
72201;SDS011;60105;54.956;73.412;2022-09-06T09:31:47;18.80;;;13.18;;
72201;SDS011;60105;54.956;73.412;2022-09-06T09:34:37;18.45;;;12.27;;
72201;SDS011;60105;54.956;73.412;2022-09-06T09:39:48;21.40;;;14.17;;
72201;SDS011;60105;54.956;73.412;2022-09-06T09:42:26;23.15;;;13.88;;
72201;SDS011;60105;54.956;73.412;2022-09-06T09:44:56;19.60;;;13.07;;
72201;SDS011;60105;54.956;73.412;2022-09-06T09:47:24;17.40;;;12.82;;
72201;SDS011;60105;54.956;73.412;2022-09-06T09:49:56;24.00;;;14.93;;
72201;SDS011;60105;54.956;73.412;2022-09-06T09:52:27;21.43;;;14.93;;
72201;SDS011;60105;54.956;73.412;2022-09-06T09:54:57;23.48;;;14.68;;
72201;SDS011;60105;54.956;73.412;2022-09-06T09:57:26;22.50;;;14.15;;
72201;SDS011;60105;54.956;73.412;2022-09-06T10:00:00;24.58;;;13.95;;
72201;SDS011;60105;54.956;73.412;2022-09-06T10:02:37;20.02;;;14.25;;
72201;SDS011;60105;54.956;73.412;2022-09-06T10:07:41;21.42;;;15.10;;
72201;SDS011;60105;54.956;73.412;2022-09-06T10:10:11;23.55;;;14.80;;
72201;SDS011;60105;54.956;73.412;2022-09-06T10:12:40;27.13;;;18.17;;
72201;SDS011;60105;54.956;73.412;2022-09-06T10:15:31;29.17;;;19.13;;
72201;SDS011;60105;54.956;73.412;2022-09-06T10:17:58;28.47;;;19.57;;
72201;SDS011;60105;54.956;73.412;2022-09-06T10:20:27;26.88;;;19.13;;
72201;SDS011;60105;54.956;73.412;2022-09-06T10:23:01;29.13;;;18.35;;
72201;SDS011;60105;54.956;73.412;2022-09-06T10:25:44;28.13;;;18.67;;
72201;SDS011;60105;54.956;73.412;2022-09-06T10:30:59;24.60;;;16.20;;
72201;SDS011;60105;54.956;73.412;2022-09-06T10:42:41;23.23;;;16.25;;
72201;SDS011;60105;54.956;73.412;2022-09-06T10:45:19;27.37;;;16.80;;
72201;SDS011;60105;54.956;73.412;2022-09-06T10:50:27;26.05;;;16.98;;
72201;SDS011;60105;54.956;73.412;2022-09-06T10:53:06;21.90;;;15.63;;
72201;SDS011;60105;54.956;73.412;2022-09-06T10:55:41;21.05;;;14.02;;
72201;SDS011;60105;54.956;73.412;2022-09-06T10:58:11;20.10;;;14.87;;
72201;SDS011;60105;54.956;73.412;2022-09-06T11:00:43;22.55;;;15.23;;
72201;SDS011;60105;54.956;73.412;2022-09-06T11:03:28;24.13;;;15.27;;
72201;SDS011;60105;54.956;73.412;2022-09-06T11:06:03;27.05;;;15.73;;
72201;SDS011;60105;54.956;73.412;2022-09-06T11:08:41;23.08;;;15.80;;
72201;SDS011;60105;54.956;73.412;2022-09-06T11:11:17;21.97;;;15.90;;
72201;SDS011;60105;54.956;73.412;2022-09-06T11:13:53;19.80;;;15.32;;
72201;SDS011;60105;54.956;73.412;2022-09-06T11:16:29;20.27;;;14.45;;
72201;SDS011;60105;54.956;73.412;2022-09-06T11:19:06;21.65;;;14.45;;
72201;SDS011;60105;54.956;73.412;2022-09-06T11:29:57;23.27;;;14.48;;
72201;SDS011;60105;54.956;73.412;2022-09-06T11:32:33;24.50;;;16.33;;
72201;SDS011;60105;54.956;73.412;2022-09-06T11:35:21;27.75;;;17.90;;
72201;SDS011;60105;54.956;73.412;2022-09-06T11:37:59;36.03;;;19.80;;
72201;SDS011;60105;54.956;73.412;2022-09-06T11:40:34;33.83;;;21.13;;
72201;SDS011;60105;54.956;73.412;2022-09-06T11:45:48;36.83;;;21.98;;
72201;SDS011;60105;54.956;73.412;2022-09-06T11:51:08;57.63;;;31.37;;
72201;SDS011;60105;54.956;73.412;2022-09-06T11:56:30;65.28;;;29.33;;
72201;SDS011;60105;54.956;73.412;2022-09-06T11:59:10;69.10;;;36.50;;
72201;SDS011;60105;54.956;73.412;2022-09-06T12:02:06;84.53;;;38.03;;
72201;SDS011;60105;54.956;73.412;2022-09-06T12:07:35;76.47;;;37.78;;
72201;SDS011;60105;54.956;73.412;2022-09-06T12:12:55;69.10;;;34.13;;
72201;SDS011;60105;54.956;73.412;2022-09-06T12:15:26;80.82;;;38.90;;
72201;SDS011;60105;54.956;73.412;2022-09-06T12:17:58;83.20;;;38.90;;
72201;SDS011;60105;54.956;73.412;2022-09-06T12:26:00;60.33;;;29.77;;
72201;SDS011;60105;54.956;73.412;2022-09-06T12:28:46;73.35;;;36.70;;
72201;SDS011;60105;54.956;73.412;2022-09-06T12:31:28;66.37;;;36.13;;
72201;SDS011;60105;54.956;73.412;2022-09-06T12:34:23;67.68;;;35.97;;
72201;SDS011;60105;54.956;73.412;2022-09-06T12:36:52;51.17;;;27.80;;
72201;SDS011;60105;54.956;73.412;2022-09-06T12:39:27;50.10;;;26.67;;
72201;SDS011;60105;54.956;73.412;2022-09-06T12:44:37;46.60;;;25.93;;
72201;SDS011;60105;54.956;73.412;2022-09-06T12:47:28;60.53;;;32.08;;
72201;SDS011;60105;54.956;73.412;2022-09-06T12:50:08;58.80;;;29.55;;
72201;SDS011;60105;54.956;73.412;2022-09-06T12:52:53;56.28;;;30.20;;
72201;SDS011;60105;54.956;73.412;2022-09-06T12:55:24;52.67;;;28.52;;
72201;SDS011;60105;54.956;73.412;2022-09-06T12:57:57;40.00;;;23.90;;
72201;SDS011;60105;54.956;73.412;2022-09-06T13:00:25;40.75;;;22.38;;
72201;SDS011;60105;54.956;73.412;2022-09-06T13:05:57;35.03;;;20.65;;
72201;SDS011;60105;54.956;73.412;2022-09-06T13:08:30;35.38;;;21.42;;
72201;SDS011;60105;54.956;73.412;2022-09-06T13:11:07;37.10;;;21.17;;
72201;SDS011;60105;54.956;73.412;2022-09-06T13:13:35;35.88;;;21.13;;
72201;SDS011;60105;54.956;73.412;2022-09-06T13:16:02;44.63;;;24.77;;
72201;SDS011;60105;54.956;73.412;2022-09-06T13:18:35;44.28;;;23.35;;
72201;SDS011;60105;54.956;73.412;2022-09-06T13:21:05;35.60;;;21.45;;
72201;SDS011;60105;54.956;73.412;2022-09-06T13:23:40;41.47;;;21.47;;
72201;SDS011;60105;54.956;73.412;2022-09-06T13:26:08;46.75;;;24.23;;
72201;SDS011;60105;54.956;73.412;2022-09-06T13:28:35;41.70;;;22.60;;
72201;SDS011;60105;54.956;73.412;2022-09-06T13:33:56;45.17;;;24.95;;
72201;SDS011;60105;54.956;73.412;2022-09-06T13:36:27;42.10;;;22.10;;
72201;SDS011;60105;54.956;73.412;2022-09-06T13:38:55;43.35;;;21.50;;
72201;SDS011;60105;54.956;73.412;2022-09-06T13:46:33;33.25;;;19.83;;
72201;SDS011;60105;54.956;73.412;2022-09-06T13:49:03;34.80;;;20.00;;
72201;SDS011;60105;54.956;73.412;2022-09-06T13:51:40;40.75;;;20.92;;
72201;SDS011;60105;54.956;73.412;2022-09-06T13:54:11;37.38;;;20.77;;
72201;SDS011;60105;54.956;73.412;2022-09-06T13:56:39;39.38;;;20.20;;
72201;SDS011;60105;54.956;73.412;2022-09-06T13:59:07;37.92;;;20.90;;
72201;SDS011;60105;54.956;73.412;2022-09-06T14:01:37;48.53;;;23.27;;
72201;SDS011;60105;54.956;73.412;2022-09-06T14:04:05;51.00;;;22.88;;
72201;SDS011;60105;54.956;73.412;2022-09-06T14:06:31;48.38;;;24.83;;
72201;SDS011;60105;54.956;73.412;2022-09-06T14:09:01;53.17;;;25.95;;
72201;SDS011;60105;54.956;73.412;2022-09-06T14:11:27;53.38;;;25.75;;
72201;SDS011;60105;54.956;73.412;2022-09-06T14:13:54;48.57;;;25.17;;
72201;SDS011;60105;54.956;73.412;2022-09-06T14:16:20;43.83;;;23.35;;
72201;SDS011;60105;54.956;73.412;2022-09-06T14:18:46;46.65;;;21.73;;
72201;SDS011;60105;54.956;73.412;2022-09-06T14:21:12;53.50;;;23.33;;
72201;SDS011;60105;54.956;73.412;2022-09-06T14:23:39;39.70;;;22.85;;
72201;SDS011;60105;54.956;73.412;2022-09-06T14:26:10;43.23;;;22.10;;
72201;SDS011;60105;54.956;73.412;2022-09-06T14:28:37;47.33;;;23.00;;
72201;SDS011;60105;54.956;73.412;2022-09-06T14:31:14;41.00;;;20.88;;
72201;SDS011;60105;54.956;73.412;2022-09-06T14:33:54;40.00;;;21.30;;
72201;SDS011;60105;54.956;73.412;2022-09-06T14:36:23;46.10;;;21.27;;
72201;SDS011;60105;54.956;73.412;2022-09-06T14:38:52;37.83;;;21.27;;
72201;SDS011;60105;54.956;73.412;2022-09-06T14:41:24;42.00;;;20.45;;
72201;SDS011;60105;54.956;73.412;2022-09-06T14:43:52;34.75;;;18.90;;
72201;SDS011;60105;54.956;73.412;2022-09-06T14:46:20;43.40;;;22.42;;
72201;SDS011;60105;54.956;73.412;2022-09-06T14:48:48;38.67;;;20.42;;
72201;SDS011;60105;54.956;73.412;2022-09-06T14:51:26;40.77;;;21.47;;
72201;SDS011;60105;54.956;73.412;2022-09-06T14:53:54;45.25;;;22.23;;
72201;SDS011;60105;54.956;73.412;2022-09-06T14:56:23;39.92;;;19.00;;
72201;SDS011;60105;54.956;73.412;2022-09-06T14:58:50;40.72;;;19.90;;
72201;SDS011;60105;54.956;73.412;2022-09-06T15:01:31;43.70;;;21.85;;
72201;SDS011;60105;54.956;73.412;2022-09-06T15:03:59;40.80;;;21.67;;
72201;SDS011;60105;54.956;73.412;2022-09-06T15:06:32;40.00;;;20.98;;
72201;SDS011;60105;54.956;73.412;2022-09-06T15:09:02;43.75;;;20.77;;
72201;SDS011;60105;54.956;73.412;2022-09-06T15:11:30;41.83;;;21.77;;
72201;SDS011;60105;54.956;73.412;2022-09-06T15:14:14;41.97;;;21.92;;
72201;SDS011;60105;54.956;73.412;2022-09-06T15:16:49;45.07;;;21.30;;
72201;SDS011;60105;54.956;73.412;2022-09-06T15:19:27;47.60;;;21.10;;
72201;SDS011;60105;54.956;73.412;2022-09-06T15:21:54;51.17;;;23.35;;
72201;SDS011;60105;54.956;73.412;2022-09-06T15:24:23;50.38;;;23.38;;
72201;SDS011;60105;54.956;73.412;2022-09-06T15:26:49;48.40;;;23.55;;
72201;SDS011;60105;54.956;73.412;2022-09-06T15:29:16;46.27;;;22.07;;
72201;SDS011;60105;54.956;73.412;2022-09-06T15:31:47;43.00;;;21.45;;
72201;SDS011;60105;54.956;73.412;2022-09-06T15:34:16;42.90;;;20.23;;
72201;SDS011;60105;54.956;73.412;2022-09-06T15:36:48;43.10;;;19.50;;
72201;SDS011;60105;54.956;73.412;2022-09-06T15:39:16;40.35;;;19.23;;
72201;SDS011;60105;54.956;73.412;2022-09-06T15:41:42;41.20;;;20.53;;
72201;SDS011;60105;54.956;73.412;2022-09-06T15:44:10;40.22;;;20.23;;
72201;SDS011;60105;54.956;73.412;2022-09-06T15:46:39;46.78;;;19.83;;
72201;SDS011;60105;54.956;73.412;2022-09-06T15:49:13;40.33;;;20.52;;
72201;SDS011;60105;54.956;73.412;2022-09-06T15:51:41;42.08;;;20.75;;
72201;SDS011;60105;54.956;73.412;2022-09-06T15:54:18;42.67;;;19.33;;
72201;SDS011;60105;54.956;73.412;2022-09-06T15:57:05;48.20;;;21.17;;
72201;SDS011;60105;54.956;73.412;2022-09-06T15:59:32;42.95;;;19.23;;
72201;SDS011;60105;54.956;73.412;2022-09-06T16:01:58;43.00;;;20.83;;
72201;SDS011;60105;54.956;73.412;2022-09-06T16:04:24;44.22;;;23.05;;
72201;SDS011;60105;54.956;73.412;2022-09-06T16:06:50;44.63;;;21.70;;
72201;SDS011;60105;54.956;73.412;2022-09-06T16:09:17;42.25;;;19.65;;
72201;SDS011;60105;54.956;73.412;2022-09-06T16:11:48;36.63;;;19.05;;
72201;SDS011;60105;54.956;73.412;2022-09-06T16:14:15;41.42;;;17.83;;
72201;SDS011;60105;54.956;73.412;2022-09-06T16:16:41;35.15;;;16.65;;
72201;SDS011;60105;54.956;73.412;2022-09-06T16:19:08;35.43;;;14.47;;
72201;SDS011;60105;54.956;73.412;2022-09-06T16:21:37;36.30;;;16.40;;
72201;SDS011;60105;54.956;73.412;2022-09-06T16:24:05;30.30;;;14.93;;
72201;SDS011;60105;54.956;73.412;2022-09-06T16:26:34;31.27;;;14.18;;
72201;SDS011;60105;54.956;73.412;2022-09-06T16:29:03;31.40;;;13.48;;
72201;SDS011;60105;54.956;73.412;2022-09-06T16:31:31;28.47;;;13.33;;
72201;SDS011;60105;54.956;73.412;2022-09-06T16:34:00;27.10;;;13.68;;
72201;SDS011;60105;54.956;73.412;2022-09-06T16:36:27;27.08;;;13.35;;
72201;SDS011;60105;54.956;73.412;2022-09-06T16:38:54;24.75;;;13.45;;